Time;durP1;ratioP1;P1;durP2;ratioP2;P2;SDS_P1;SDS_P2;PMS_P1;PMS_P2;Temp;Humidity;BMP_temperature;BMP_pressure;BME280_temperature;BME280_humidity;BME280_pressure;Samples;Min_cycle;Max_cycle;Signal;HPM_P1;HPM_P2
2022/12/20 00:00:44;;;;;;;12.10;5.03;;;9.80;99.90;;;;;;6067882;23;20034;-85
2022/12/20 00:03:13;;;;;;;12.00;5.15;;;8.70;99.90;;;;;;6039571;23;20089;-84
2022/12/20 00:05:40;;;;;;;10.07;4.47;;;10.10;99.90;;;;;;6043623;23;20019;-84
2022/12/20 00:08:12;;;;;;;10.23;4.90;;;10.30;99.90;;;;;;6063827;23;20026;-83
2022/12/20 00:14:10;;;;;;;11.45;5.20;;;9.20;99.90;;;;;;6063102;23;20395;-84
2022/12/20 00:16:37;;;;;;;10.98;5.15;;;10.70;99.90;;;;;;6070162;23;20025;-84
2022/12/20 00:19:05;;;;;;;10.63;5.00;;;10.00;99.90;;;;;;6096223;23;20025;-84
2022/12/20 00:21:35;;;;;;;10.82;5.00;;;10.00;99.90;;;;;;6087544;23;20022;-84
2022/12/20 00:24:09;;;;;;;10.73;4.78;;;9.10;99.90;;;;;;6095226;23;20515;-85
2022/12/20 00:26:41;;;;;;;11.13;5.00;;;9.00;99.90;;;;;;6096425;23;20090;-84
2022/12/20 00:29:23;;;;;;;10.10;4.32;;;8.80;99.90;;;;;;6069592;23;20018;-84
2022/12/20 00:32:06;;;;;;;13.20;5.03;;;7.80;99.90;;;;;;6071917;23;20023;-84
2022/12/20 00:34:42;;;;;;;9.93;4.50;;;10.70;99.90;;;;;;6096448;23;20017;-84
2022/12/20 00:40:38;;;;;;;10.93;4.50;;;8.50;99.90;;;;;;6070625;23;20034;-84
2022/12/20 00:43:04;;;;;;;10.10;4.63;;;10.50;99.90;;;;;;6095292;23;20086;-84
2022/12/20 00:45:42;;;;;;;9.55;4.60;;;8.50;99.90;;;;;;6072710;23;20018;-84
2022/12/20 00:48:14;;;;;;;9.27;4.50;;;10.90;99.90;;;;;;6100028;23;20069;-84
2022/12/20 00:50:39;;;;;;;10.15;4.80;;;8.40;99.90;;;;;;6099327;23;20014;-84
2022/12/20 00:53:27;;;;;;;10.25;4.30;;;10.60;99.90;;;;;;6125856;23;20552;-84
2022/12/20 00:59:37;;;;;;;;;;;;;;;;;;;;;
2022/12/20 01:02:21;;;;;;;9.68;4.30;;;9.50;99.90;;;;;;6121267;23;20020;-84
2022/12/20 01:04:49;;;;;;;9.02;4.20;;;8.50;99.90;;;;;;6125131;23;20013;-84
2022/12/20 01:07:15;;;;;;;8.85;3.85;;;11.10;99.90;;;;;;6132346;23;20041;-84
2022/12/20 01:09:47;;;;;;;9.45;4.03;;;9.50;99.90;;;;;;6100132;23;20025;-84
2022/12/20 01:12:12;;;;;;;9.55;4.10;;;9.50;99.90;;;;;;6127932;23;20474;-84
2022/12/20 01:15:12;;;;;;;9.30;4.38;;;10.90;99.90;;;;;;6099209;23;20010;-84
2022/12/20 01:17:38;;;;;;;9.57;4.30;;;9.90;99.90;;;;;;6125089;23;20018;-84
2022/12/20 01:20:07;;;;;;;8.95;4.00;;;10.60;99.90;;;;;;6098345;23;20031;-84
2022/12/20 01:22:33;;;;;;;8.75;4.05;;;9.50;99.90;;;;;;6099129;23;20551;-84
2022/12/20 01:25:16;;;;;;;10.38;4.00;;;10.70;99.90;;;;;;6125753;23;20062;-84
2022/12/20 01:28:27;;;;;;;11.33;4.53;;;10.50;99.90;;;;;;6099594;23;20093;-84
2022/12/20 01:30:59;;;;;;;8.95;4.00;;;9.50;99.90;;;;;;5983898;23;20260;-85
2022/12/20 01:33:46;;;;;;;;;;;;;;;;;;;;;
2022/12/20 01:36:37;;;;;;;8.70;3.97;;;8.50;99.90;;;;;;6097899;23;20049;-84
2022/12/20 01:39:13;;;;;;;10.50;4.25;;;11.10;99.90;;;;;;6100776;23;20041;-84
2022/12/20 01:42:18;;;;;;;9.32;4.00;;;9.10;99.90;;;;;;6101518;23;20022;-84
2022/12/20 01:45:14;;;;;;;9.77;4.03;;;9.30;99.90;;;;;;6127174;23;20017;-84
2022/12/20 01:47:40;;;;;;;8.85;4.10;;;8.80;99.90;;;;;;6100472;23;20014;-84
2022/12/20 01:50:27;;;;;;;9.70;4.18;;;10.80;99.90;;;;;;6101724;23;20112;-84
2022/12/20 01:53:04;;;;;;;;;;;;;;;;;;;;;
2022/12/20 01:56:04;;;;;;;10.05;3.95;;;9.60;99.90;;;;;;6119276;23;20055;-84
2022/12/20 01:58:47;;;;;;;8.68;3.88;;;9.30;99.90;;;;;;6126863;23;20022;-84
2022/12/20 02:01:13;;;;;;;9.18;3.72;;;10.00;99.90;;;;;;6125989;23;20018;-84
2022/12/20 02:03:40;;;;;;;10.18;4.13;;;11.20;99.90;;;;;;6126992;23;20438;-84
2022/12/20 02:06:28;;;;;;;9.23;3.70;;;9.60;99.90;;;;;;6101085;23;20021;-84
2022/12/20 02:09:04;;;;;;;10.00;3.72;;;10.90;99.90;;;;;;6126784;23;20300;-84
2022/12/20 02:12:07;;;;;;;9.25;3.90;;;11.20;99.90;;;;;;6101147;23;20061;-84
2022/12/20 02:14:58;;;;;;;9.33;3.90;;;9.40;99.90;;;;;;6126688;23;20018;-84
2022/12/20 02:17:57;;;;;;;8.40;3.70;;;9.50;99.90;;;;;;6101641;23;20095;-84
2022/12/20 02:24:52;;;;;;;9.60;3.70;;;9.90;99.90;;;;;;6127343;23;20016;-84
2022/12/20 02:31:17;;;;;;;;;;;;;;;;;;;;;
2022/12/20 02:34:12;;;;;;;10.17;4.33;;;9.70;99.90;;;;;;6062314;23;20082;-84
2022/12/20 02:36:59;;;;;;;9.83;4.10;;;11.40;99.90;;;;;;6071773;23;20022;-84
2022/12/20 02:39:32;;;;;;;8.37;3.77;;;10.90;99.90;;;;;;6071798;23;20060;-84
2022/12/20 02:42:10;;;;;;;8.82;3.97;;;11.00;99.90;;;;;;6072382;23;20057;-84
2022/12/20 02:45:19;;;;;;;8.53;3.70;;;9.70;99.90;;;;;;6097371;23;20018;-84
2022/12/20 02:48:24;;;;;;;8.90;3.60;;;9.20;99.90;;;;;;6072016;23;20075;-84
2022/12/20 02:58:22;;;;;;;8.90;3.90;;;8.60;99.90;;;;;;6065167;23;20057;-85
2022/12/20 03:01:12;;;;;;;9.40;4.05;;;10.70;99.90;;;;;;6075112;23;20054;-84
2022/12/20 03:03:54;;;;;;;10.48;4.15;;;9.70;99.90;;;;;;6062679;23;20022;-84
2022/12/20 03:06:22;;;;;;;9.70;4.10;;;10.80;99.90;;;;;;6096881;23;20064;-84
2022/12/20 03:09:03;;;;;;;8.35;3.65;;;11.20;99.90;;;;;;6097577;23;20018;-84
2022/12/20 03:11:38;;;;;;;9.77;3.93;;;11.10;99.90;;;;;;6071269;23;20517;-84
2022/12/20 03:14:51;;;;;;;8.90;3.88;;;10.60;99.90;;;;;;6097292;23;20021;-84
2022/12/20 03:17:25;;;;;;;8.75;3.75;;;9.80;99.90;;;;;;5957113;24;20039;-84
2022/12/20 03:20:18;;;;;;;9.65;4.20;;;10.70;99.90;;;;;;5957147;24;20020;-84
2022/12/20 03:22:44;;;;;;;9.32;3.95;;;8.90;99.90;;;;;;5980714;24;20020;-84
2022/12/20 03:25:31;;;;;;;8.88;3.83;;;9.60;99.90;;;;;;5979202;24;20080;-84
2022/12/20 03:28:06;;;;;;;9.70;4.00;;;11.20;99.90;;;;;;5957394;24;20027;-84
2022/12/20 03:30:54;;;;;;;12.23;4.40;;;11.10;99.90;;;;;;5982205;23;20028;-85
2022/12/20 03:36:56;;;;;;;9.23;4.05;;;9.40;99.90;;;;;;6105437;23;20026;-85
2022/12/20 03:39:24;;;;;;;9.23;4.10;;;9.40;99.90;;;;;;6070322;23;20022;-84
2022/12/20 03:41:50;;;;;;;10.18;4.22;;;8.40;99.90;;;;;;6071558;23;20029;-84
2022/12/20 03:44:38;;;;;;;11.30;4.53;;;9.30;99.90;;;;;;6071066;23;20022;-84
2022/12/20 03:47:13;;;;;;;9.25;4.20;;;9.10;99.90;;;;;;6096585;23;20018;-84
2022/12/20 03:49:50;;;;;;;9.73;4.47;;;10.70;99.90;;;;;;6071081;23;20018;-84
2022/12/20 03:52:28;;;;;;;9.85;4.70;;;9.00;99.90;;;;;;6097160;23;20053;-84
2022/12/20 03:54:57;;;;;;;8.55;3.90;;;8.40;99.90;;;;;;6070807;23;20474;-84
2022/12/20 03:57:41;;;;;;;10.27;4.68;;;9.80;99.90;;;;;;6070948;23;20093;-84
2022/12/20 04:00:22;;;;;;;10.73;4.80;;;10.80;99.90;;;;;;6088256;23;20062;-84
2022/12/20 04:03:01;;;;;;;;;;;;;;;;;;;;;
2022/12/20 04:05:36;;;;;;;11.17;5.00;;;9.70;99.90;;;;;;6073750;23;20078;-84
2022/12/20 04:08:02;;;;;;;10.43;4.60;;;10.30;99.90;;;;;;6095874;23;20324;-85
2022/12/20 04:10:28;;;;;;;11.00;4.80;;;9.10;99.90;;;;;;6095563;23;20052;-84
2022/12/20 04:12:59;;;;;;;10.55;4.88;;;9.50;99.90;;;;;;6071479;23;20513;-84
2022/12/20 04:15:37;;;;;;;10.68;5.00;;;10.70;99.90;;;;;;6069851;23;20018;-85
2022/12/20 04:18:05;;;;;;;11.18;4.80;;;10.80;99.90;;;;;;6071021;23;20137;-85
2022/12/20 04:20:37;;;;;;;10.43;4.93;;;9.20;99.90;;;;;;6070987;23;20022;-84
2022/12/20 04:23:21;;;;;;;10.70;4.90;;;9.20;99.90;;;;;;6070601;23;20018;-84
2022/12/20 04:26:48;;;;;;;;;;;;;;;;;;;;;
2022/12/20 04:29:38;;;;;;;;;;;8.60;99.90;;;;;;6037816;23;19921;-84
2022/12/20 04:32:04;;;;;;;11.23;4.95;;;9.90;99.90;;;;;;6096838;23;19917;-84
2022/12/20 04:34:32;;;;;;;10.77;5.18;;;10.90;99.90;;;;;;6071470;23;20024;-84
2022/12/20 04:42:10;;;;;;;13.07;5.70;;;9.20;99.90;;;;;;6121452;23;20084;-85
2022/12/20 04:44:37;;;;;;;10.05;5.20;;;10.20;99.90;;;;;;6129032;23;20029;-85
2022/12/20 04:47:33;;;;;;;11.13;5.03;;;10.60;99.90;;;;;;6100434;23;20030;-84
2022/12/20 04:49:59;;;;;;;11.70;5.07;;;9.30;99.90;;;;;;6098866;23;20096;-85
2022/12/20 04:55:35;;;;;;;11.27;4.85;;;10.00;99.90;;;;;;6099330;23;20026;-85
2022/12/20 04:58:03;;;;;;;11.85;5.13;;;9.20;99.90;;;;;;6098705;23;20021;-85
2022/12/20 05:00:35;;;;;;;10.77;4.73;;;10.80;99.90;;;;;;6124889;23;20029;-84
2022/12/20 05:03:01;;;;;;;9.98;4.50;;;10.90;99.90;;;;;;6096704;23;20026;-84
2022/12/20 05:05:26;;;;;;;10.93;4.75;;;10.90;99.90;;;;;;6124510;23;20014;-84
2022/12/20 05:07:55;;;;;;;10.07;4.40;;;10.70;99.90;;;;;;6098673;23;20461;-84
2022/12/20 05:11:13;;;;;;;11.00;5.00;;;9.60;99.90;;;;;;6108455;23;20029;-84
2022/12/20 05:13:48;;;;;;;11.90;4.60;;;8.80;99.90;;;;;;6095219;23;20455;-84
2022/12/20 05:16:32;;;;;;;9.30;4.38;;;9.40;99.90;;;;;;6096281;23;20022;-85
2022/12/20 05:19:02;;;;;;;9.63;4.25;;;9.40;99.90;;;;;;6094200;23;20054;-85
2022/12/20 05:27:44;;;;;;;9.82;4.10;;;11.20;99.90;;;;;;6125147;23;20021;-85
2022/12/20 05:30:23;;;;;;;9.75;3.88;;;11.30;99.90;;;;;;6089027;23;20031;-84
2022/12/20 05:37:19;;;;;;;9.60;3.60;;;10.00;99.90;;;;;;5967541;24;20027;-84
2022/12/20 05:40:21;;;;;;;9.55;4.32;;;10.30;99.90;;;;;;5943460;24;20055;-84
2022/12/20 05:43:02;;;;;;;10.13;4.30;;;9.90;99.90;;;;;;5926993;24;20020;-84
2022/12/20 05:45:34;;;;;;;9.30;3.83;;;10.00;99.90;;;;;;5951418;24;20021;-85
2022/12/20 05:51:12;;;;;;;10.30;4.25;;;10.10;99.90;;;;;;6009629;23;20029;-85
2022/12/20 05:54:02;;;;;;;9.82;4.35;;;10.10;99.90;;;;;;6065517;23;20019;-85
2022/12/20 05:56:36;;;;;;;8.98;4.28;;;10.00;99.90;;;;;;6089588;23;20094;-85
2022/12/20 05:59:10;;;;;;;8.75;4.00;;;11.70;99.90;;;;;;6067209;23;20070;-85
2022/12/20 06:01:51;;;;;;;10.77;4.30;;;11.30;99.90;;;;;;6065066;23;20019;-85
2022/12/20 06:05:10;;;;;;;10.70;4.30;;;11.60;99.90;;;;;;6082825;23;20422;-85
2022/12/20 06:07:39;;;;;;;11.02;3.95;;;10.20;99.90;;;;;;6094962;23;20050;-86
2022/12/20 06:10:55;;;;;;;10.07;4.10;;;11.60;99.90;;;;;;6096099;23;20014;-85
2022/12/20 06:13:24;;;;;;;9.02;3.95;;;10.10;99.90;;;;;;6093726;23;20018;-85
2022/12/20 06:15:56;;;;;;;9.73;4.25;;;11.60;99.90;;;;;;6095946;23;20324;-85
2022/12/20 06:18:31;;;;;;;10.95;4.05;;;10.10;99.90;;;;;;6069108;23;20473;-85
2022/12/20 06:21:07;;;;;;;;;;;;;;;;;;;;;
2022/12/20 06:23:51;;;;;;;9.93;4.30;;;10.00;99.90;;;;;;6066315;23;20019;-85
2022/12/20 06:26:21;;;;;;;11.43;4.03;;;10.80;99.90;;;;;;6075770;23;20543;-85
2022/12/20 06:28:51;;;;;;;11.18;4.13;;;10.10;99.90;;;;;;6067456;23;20030;-85
2022/12/20 06:31:32;;;;;;;10.95;4.45;;;10.20;99.90;;;;;;6069051;23;20061;-84
2022/12/20 06:33:58;;;;;;;10.88;4.20;;;10.00;99.90;;;;;;6071232;23;20011;-85
2022/12/20 06:36:24;;;;;;;10.15;4.38;;;9.60;99.90;;;;;;6067940;23;20022;-85
2022/12/20 06:38:57;;;;;;;10.20;4.38;;;10.10;99.90;;;;;;6069054;23;20523;-85
2022/12/20 06:41:44;;;;;;;9.85;4.03;;;10.10;99.90;;;;;;6108105;23;20028;-85
2022/12/20 06:44:13;;;;;;;11.70;4.60;;;10.30;99.90;;;;;;6130494;23;20018;-85
2022/12/20 06:49:43;;;;;;;9.85;4.22;;;10.10;99.90;;;;;;6125726;23;20383;-85
2022/12/20 06:52:40;;;;;;;9.93;4.40;;;10.10;99.90;;;;;;6126189;23;20022;-85
2022/12/20 06:55:07;;;;;;;10.77;4.38;;;10.00;99.90;;;;;;6085544;23;20054;-85
2022/12/20 06:57:55;;;;;;;;;;;;;;;;;;;;;
2022/12/20 07:00:30;;;;;;;12.90;4.97;;;9.90;99.90;;;;;;6102675;23;20014;-85
2022/12/20 07:03:00;;;;;;;10.63;4.63;;;10.80;99.90;;;;;;6101757;23;20014;-85
2022/12/20 07:08:19;;;;;;;11.25;5.05;;;9.90;99.90;;;;;;6129843;23;20026;-85
2022/12/20 07:11:05;;;;;;;10.25;4.97;;;9.80;99.90;;;;;;6129478;23;20017;-85
2022/12/20 07:13:31;;;;;;;12.00;4.70;;;9.00;99.90;;;;;;6101512;23;20018;-85
2022/12/20 07:16:18;;;;;;;12.73;5.27;;;9.80;99.90;;;;;;6100791;23;20080;-85
2022/12/20 07:18:54;;;;;;;10.63;5.05;;;9.80;99.90;;;;;;6099370;23;20028;-85
2022/12/20 07:21:38;;;;;;;13.07;5.13;;;9.90;99.90;;;;;;6126518;23;20057;-84
2022/12/20 07:24:19;;;;;;;12.32;5.35;;;10.00;99.90;;;;;;6099406;23;20434;-81
2022/12/20 07:26:51;;;;;;;13.15;5.38;;;9.70;99.90;;;;;;6100288;23;20014;-83
2022/12/20 07:29:17;;;;;;;10.57;5.35;;;9.80;99.90;;;;;;6126015;23;20018;-82
2022/12/20 07:31:52;;;;;;;11.32;5.72;;;9.90;99.90;;;;;;6099309;23;20036;-82
2022/12/20 07:34:17;;;;;;;11.52;6.00;;;9.80;99.90;;;;;;6099867;23;20477;-81
2022/12/20 07:36:44;;;;;;;10.77;5.78;;;9.90;99.90;;;;;;6126327;23;20014;-83
2022/12/20 07:39:22;;;;;;;12.52;6.10;;;9.80;99.90;;;;;;6124918;23;20347;-83
2022/12/20 07:41:47;;;;;;;12.20;5.60;;;9.80;99.90;;;;;;6126227;23;20022;-82
2022/12/20 07:44:29;;;;;;;12.75;6.95;;;9.80;99.90;;;;;;6100009;23;20026;-82
2022/12/20 07:47:04;;;;;;;13.23;6.28;;;9.80;99.90;;;;;;6126024;23;20069;-82
2022/12/20 07:49:42;;;;;;;11.68;5.97;;;9.70;99.90;;;;;;6099709;23;20018;-81
2022/12/20 07:52:49;;;;;;;11.20;6.03;;;9.80;99.90;;;;;;6125499;23;20324;-82
2022/12/20 07:55:15;;;;;;;12.18;5.80;;;9.90;99.90;;;;;;5984897;23;20020;-83
2022/12/20 07:58:03;;;;;;;13.48;6.45;;;9.70;99.90;;;;;;5984863;23;20023;-82
2022/12/20 08:01:01;;;;;;;10.63;5.70;;;9.70;99.90;;;;;;5983614;23;20102;-82
2022/12/20 08:04:04;;;;;;;11.10;5.28;;;10.00;99.90;;;;;;5982570;23;20173;-82
2022/12/20 08:06:54;;;;;;;;;;;9.70;99.90;;;;;;6007005;23;20015;-82
2022/12/20 08:09:43;;;;;;;16.05;5.70;;;10.00;99.90;;;;;;5984127;23;19925;-83
2022/12/20 08:12:19;;;;;;;10.75;5.20;;;10.00;99.90;;;;;;6012971;23;20455;-83
2022/12/20 08:14:45;;;;;;;10.95;5.20;;;10.10;99.90;;;;;;6069712;23;20519;-81
2022/12/20 08:17:13;;;;;;;12.00;4.70;;;9.90;99.90;;;;;;6067968;23;20019;-81
2022/12/20 08:19:38;;;;;;;12.25;5.47;;;10.00;99.90;;;;;;6066315;23;20029;-81
2022/12/20 08:22:05;;;;;;;10.18;4.82;;;10.00;99.90;;;;;;6067281;23;20050;-81
2022/12/20 08:24:32;;;;;;;10.60;4.47;;;10.00;99.90;;;;;;6067540;23;20018;-80
2022/12/20 08:26:58;;;;;;;10.50;4.47;;;10.00;99.90;;;;;;6065343;23;20019;-81
2022/12/20 08:29:42;;;;;;;10.43;4.25;;;10.10;99.90;;;;;;6065862;23;20026;-81
2022/12/20 08:32:50;;;;;;;10.15;4.25;;;10.10;99.90;;;;;;6068349;23;20021;-81
2022/12/20 08:35:19;;;;;;;11.93;6.38;;;9.50;99.90;;;;;;6042787;23;20014;-81
2022/12/20 08:37:51;;;;;;;11.52;4.53;;;10.70;99.90;;;;;;6067590;23;20019;-81
2022/12/20 08:40:32;;;;;;;9.43;4.07;;;10.20;99.90;;;;;;6088713;23;20026;-81
2022/12/20 08:43:07;;;;;;;11.13;4.65;;;10.20;99.90;;;;;;6067732;23;20113;-80
2022/12/20 08:45:50;;;;;;;10.80;4.30;;;10.30;99.90;;;;;;6067704;23;20607;-81
2022/12/20 08:48:16;;;;;;;11.55;5.30;;;10.30;99.90;;;;;;6066638;23;20071;-81
2022/12/20 08:50:42;;;;;;;10.07;3.90;;;10.30;99.90;;;;;;6066221;23;20061;-81
2022/12/20 08:53:07;;;;;;;8.65;3.60;;;10.40;99.90;;;;;;6090283;23;20023;-83
2022/12/20 08:55:33;;;;;;;9.95;4.20;;;10.30;99.90;;;;;;6064805;23;20022;-85
2022/12/20 08:57:58;;;;;;;10.18;3.92;;;10.40;99.90;;;;;;6065830;23;20022;-85
2022/12/20 09:00:24;;;;;;;10.38;3.83;;;10.40;99.90;;;;;;6067364;23;20023;-83
2022/12/20 09:02:53;;;;;;;9.85;3.63;;;10.40;99.90;;;;;;6067298;23;20022;-83
2022/12/20 09:05:46;;;;;;;9.00;3.70;;;10.50;99.90;;;;;;6066761;23;20097;-83
2022/12/20 09:08:16;;;;;;;9.05;3.60;;;10.50;99.90;;;;;;6123504;23;20077;-82
2022/12/20 09:10:45;;;;;;;10.80;4.10;;;10.50;99.90;;;;;;6099331;23;20029;-82
2022/12/20 09:13:11;;;;;;;8.88;3.58;;;11.40;99.90;;;;;;6096761;23;20022;-82
2022/12/20 09:15:41;;;;;;;12.85;3.90;;;10.50;99.90;;;;;;6098430;23;20090;-83
2022/12/20 09:18:06;;;;;;;9.43;3.80;;;10.50;99.90;;;;;;6097748;23;20021;-83
2022/12/20 09:20:32;;;;;;;9.20;3.85;;;10.60;99.90;;;;;;6099579;23;20148;-83
2022/12/20 09:23:20;;;;;;;9.70;3.88;;;10.50;99.90;;;;;;6124984;23;20018;-84
2022/12/20 09:26:03;;;;;;;10.05;4.30;;;10.30;99.90;;;;;;6105281;23;20101;-84
2022/12/20 09:28:44;;;;;;;11.10;4.78;;;10.50;99.90;;;;;;6125931;23;20029;-84
2022/12/20 09:31:24;;;;;;;10.07;4.07;;;10.40;99.90;;;;;;6098709;23;20018;-83
2022/12/20 09:33:56;;;;;;;10.65;4.30;;;10.50;99.90;;;;;;6125500;23;20018;-84
2022/12/20 09:36:29;;;;;;;9.80;4.22;;;10.50;99.90;;;;;;6099337;23;20026;-84
2022/12/20 09:38:55;;;;;;;10.75;4.00;;;9.90;99.90;;;;;;6124794;23;20022;-84
2022/12/20 09:41:56;;;;;;;9.80;4.10;;;10.50;99.90;;;;;;6125478;23;20327;-84
2022/12/20 09:44:35;;;;;;;11.63;3.88;;;10.00;99.90;;;;;;6098419;23;20023;-85
2022/12/20 09:47:26;;;;;;;11.05;4.75;;;10.50;99.90;;;;;;6099719;23;20165;-84
2022/12/20 09:49:55;;;;;;;11.98;4.75;;;10.50;99.90;;;;;;6099226;23;20021;-84
2022/12/20 09:53:34;;;;;;;11.70;3.88;;;10.50;99.90;;;;;;6129431;23;20033;-82
2022/12/20 09:56:36;;;;;;;9.63;3.67;;;10.50;99.90;;;;;;6125801;23;20180;-83
2022/12/20 09:59:11;;;;;;;13.77;4.78;;;10.40;99.90;;;;;;6131182;23;20020;-84
2022/12/20 10:02:05;;;;;;;10.30;4.43;;;10.40;99.90;;;;;;6131639;23;20014;-83
2022/12/20 10:04:35;;;;;;;11.10;4.55;;;10.40;99.90;;;;;;6101513;23;20029;-83
2022/12/20 10:07:32;;;;;;;11.27;4.28;;;10.30;99.90;;;;;;6089185;23;20023;-83
2022/12/20 10:10:17;;;;;;;11.60;4.72;;;10.40;99.90;;;;;;6069094;23;20029;-83
2022/12/20 10:13:26;;;;;;;11.48;4.60;;;10.20;99.90;;;;;;6066488;23;20019;-83
2022/12/20 10:16:46;;;;;;;10.27;4.40;;;9.60;99.90;;;;;;6069211;23;20019;-84
2022/12/20 10:19:37;;;;;;;11.38;4.72;;;9.90;99.90;;;;;;6066806;23;20098;-84
2022/12/20 10:26:36;;;;;;;13.25;4.88;;;9.70;99.90;;;;;;6068172;23;20115;-87
2022/12/20 10:32:26;;;;;;;11.57;5.03;;;9.00;99.90;;;;;;6068642;23;19996;-85
2022/12/20 10:35:33;;;;;;;13.40;5.28;;;9.60;99.90;;;;;;6072494;23;20021;-85
2022/12/20 10:38:16;;;;;;;;;;;;;;;;;;;;;
2022/12/20 10:41:05;;;;;;;10.48;5.18;;;9.60;99.90;;;;;;6023593;23;20097;-85
2022/12/20 10:44:40;;;;;;;14.63;5.97;;;9.50;99.90;;;;;;6068604;23;20348;-85
2022/12/20 10:47:50;;;;;;;12.48;5.70;;;9.60;99.90;;;;;;6010424;23;20042;-85
2022/12/20 10:50:25;;;;;;;10.48;5.57;;;8.90;99.90;;;;;;6068708;23;20023;-85
2022/12/20 10:53:29;;;;;;;12.80;5.35;;;9.60;99.90;;;;;;6069053;23;20019;-85
2022/12/20 10:56:40;;;;;;;12.15;5.65;;;9.60;99.90;;;;;;6066757;23;20019;-85
2022/12/20 10:59:52;;;;;;;14.13;5.70;;;9.90;99.90;;;;;;6066660;23;20023;-85
2022/12/20 11:02:51;;;;;;;11.80;5.43;;;9.60;99.90;;;;;;6067815;23;20026;-85
2022/12/20 11:06:07;;;;;;;12.30;5.25;;;9.50;99.90;;;;;;6069130;23;20027;-84
2022/12/20 11:08:42;;;;;;;12.40;6.00;;;9.00;99.90;;;;;;6035294;23;20031;-84
2022/12/20 11:12:04;;;;;;;13.05;5.32;;;9.40;99.90;;;;;;6016167;23;20352;-85
2022/12/20 11:14:57;;;;;;;14.82;5.30;;;9.40;99.90;;;;;;6012347;23;20023;-85
2022/12/20 11:18:24;;;;;;;11.43;5.00;;;9.60;99.90;;;;;;5924209;24;20074;-84
2022/12/20 11:21:34;;;;;;;16.67;10.00;;;8.40;99.90;;;;;;5897036;24;20074;-85
2022/12/20 11:24:51;;;;;;;12.00;5.05;;;9.70;99.90;;;;;;6007655;23;20511;-85
2022/12/20 11:28:26;;;;;;;12.77;5.40;;;9.60;99.90;;;;;;6124007;23;20077;-86
2022/12/20 11:31:40;;;;;;;11.35;5.45;;;9.80;99.90;;;;;;6124106;23;20342;-86
2022/12/20 11:34:46;;;;;;;12.85;5.57;;;9.70;99.90;;;;;;6124200;23;20018;-85
2022/12/20 11:38:00;;;;;;;10.68;4.63;;;9.00;99.90;;;;;;6007753;23;20095;-85
2022/12/20 11:41:03;;;;;;;11.40;5.30;;;9.70;99.90;;;;;;5984668;23;20019;-85
2022/12/20 11:43:46;;;;;;;13.13;5.88;;;9.70;99.90;;;;;;5984515;23;20034;-83
2022/12/20 11:46:33;;;;;;;13.65;6.88;;;9.70;99.90;;;;;;5985420;23;20027;-84
2022/12/20 11:48:59;;;;;;;15.20;6.88;;;9.70;99.90;;;;;;6092237;23;20065;-82
2022/12/20 11:51:39;;;;;;;14.55;6.90;;;9.60;99.90;;;;;;6126700;23;20041;-83
2022/12/20 11:54:12;;;;;;;12.90;5.80;;;9.70;99.90;;;;;;6145070;23;20045;-83
2022/12/20 11:56:46;;;;;;;10.57;5.18;;;9.70;99.90;;;;;;6130900;23;20022;-82
2022/12/20 11:59:27;;;;;;;14.77;8.02;;;9.70;99.90;;;;;;6133514;23;20074;-83
2022/12/20 12:02:10;;;;;;;14.07;5.60;;;9.70;99.90;;;;;;6126510;23;20010;-83
2022/12/20 12:04:45;;;;;;;12.48;5.57;;;9.60;99.90;;;;;;6125749;23;20464;-83
2022/12/20 12:07:21;;;;;;;12.88;6.40;;;9.60;99.90;;;;;;6128447;23;20014;-83
2022/12/20 12:09:58;;;;;;;12.68;6.68;;;9.60;99.90;;;;;;6124259;23;20025;-84
2022/12/20 12:12:33;;;;;;;20.63;7.70;;;9.60;99.90;;;;;;6123533;23;20077;-83
2022/12/20 12:15:30;;;;;;;16.92;7.20;;;9.60;99.90;;;;;;6129199;23;20514;-83
2022/12/20 12:18:08;;;;;;;16.90;8.70;;;9.50;99.90;;;;;;6077535;23;20402;-82
2022/12/20 12:20:40;;;;;;;23.07;11.13;;;9.50;99.90;;;;;;6123227;23;20428;-83
2022/12/20 12:23:29;;;;;;;17.30;6.97;;;9.50;99.90;;;;;;6124736;23;20141;-83
2022/12/20 12:26:01;;;;;;;13.03;6.97;;;9.60;99.90;;;;;;6123806;23;20032;-83
2022/12/20 12:28:27;;;;;;;15.27;6.35;;;9.50;99.90;;;;;;6122580;23;20022;-82
2022/12/20 12:31:05;;;;;;;12.25;6.22;;;9.60;99.90;;;;;;6126029;23;20343;-82
2022/12/20 12:33:41;;;;;;;13.60;6.30;;;9.60;99.90;;;;;;6122082;23;20014;-84
2022/12/20 12:36:25;;;;;;;14.25;7.15;;;9.50;99.90;;;;;;6123702;23;20089;-82
2022/12/20 12:39:22;;;;;;;15.73;8.63;;;9.50;99.90;;;;;;6124666;23;20022;-82
2022/12/20 12:42:07;;;;;;;14.52;6.80;;;9.60;99.90;;;;;;6124530;23;20017;-82
2022/12/20 12:44:32;;;;;;;;;;;9.60;99.90;;;;;;6123814;23;20026;-82
2022/12/20 12:47:01;;;;;;;16.63;9.52;;;9.60;99.90;;;;;;6123872;23;20231;-82
2022/12/20 12:49:30;;;;;;;15.77;8.70;;;9.60;99.90;;;;;;6123045;23;20014;-82
2022/12/20 12:51:59;;;;;;;16.13;7.50;;;9.60;99.90;;;;;;6124056;23;20478;-82
2022/12/20 12:54:38;;;;;;;12.95;6.90;;;9.60;99.90;;;;;;6098102;23;20510;-82
2022/12/20 12:57:14;;;;;;;15.18;6.63;;;9.60;99.90;;;;;;6124227;23;20320;-83
2022/12/20 12:59:48;;;;;;;14.75;6.88;;;9.60;99.90;;;;;;6123415;23;20052;-82
2022/12/20 13:02:14;;;;;;;13.73;6.95;;;9.60;99.90;;;;;;6122971;23;20018;-82
2022/12/20 13:04:58;;;;;;;16.35;7.13;;;9.60;99.90;;;;;;6123528;23;20021;-82
2022/12/20 13:07:32;;;;;;;19.48;8.38;;;9.60;99.90;;;;;;6123495;23;20346;-82
2022/12/20 13:10:00;;;;;;;13.65;6.72;;;9.60;99.90;;;;;;6122095;23;20021;-82
2022/12/20 13:12:37;;;;;;;12.65;6.68;;;9.60;99.90;;;;;;6123268;23;20072;-82
2022/12/20 13:15:21;;;;;;;14.82;7.50;;;9.60;99.90;;;;;;6122716;23;20021;-83
2022/12/20 13:17:59;;;;;;;38.20;22.50;;;9.60;99.90;;;;;;6123706;23;20018;-83
2022/12/20 13:20:27;;;;;;;16.70;7.85;;;9.60;99.90;;;;;;6123423;23;20033;-82
2022/12/20 13:23:09;;;;;;;15.13;8.88;;;9.60;99.90;;;;;;6122856;23;20056;-84
2022/12/20 13:25:36;;;;;;;18.20;9.93;;;9.60;99.90;;;;;;6125607;23;20022;-82
2022/12/20 13:28:23;;;;;;;21.83;11.40;;;9.60;99.90;;;;;;6123732;23;20024;-83
2022/12/20 13:31:01;;;;;;;18.92;8.75;;;9.60;99.90;;;;;;6124661;23;20025;-82
2022/12/20 13:33:47;;;;;;;17.52;8.20;;;9.60;99.90;;;;;;6124424;23;20021;-82
2022/12/20 13:36:16;;;;;;;18.65;10.00;;;9.60;99.90;;;;;;6125534;23;20447;-82
2022/12/20 13:38:44;;;;;;;15.80;8.43;;;9.60;99.90;;;;;;6125252;23;20065;-83
2022/12/20 13:41:37;;;;;;;16.42;8.30;;;9.60;99.90;;;;;;6125376;23;20022;-83
2022/12/20 13:44:30;;;;;;;17.33;8.73;;;9.60;99.90;;;;;;6124592;23;20022;-83
2022/12/20 13:47:24;;;;;;;16.00;9.50;;;9.60;99.90;;;;;;6125693;23;20014;-82
2022/12/20 13:49:49;;;;;;;15.95;8.95;;;9.60;99.90;;;;;;6125503;23;20254;-82
2022/12/20 13:52:28;;;;;;;14.77;8.40;;;9.60;99.90;;;;;;6127641;23;20028;-83
2022/12/20 13:55:03;;;;;;;18.77;9.35;;;9.60;99.90;;;;;;6126468;23;20401;-82
2022/12/20 13:57:41;;;;;;;13.38;7.75;;;9.60;99.90;;;;;;6127021;23;20051;-82
2022/12/20 14:00:16;;;;;;;17.15;9.35;;;9.60;99.90;;;;;;6125295;23;20056;-81
2022/12/20 14:02:42;;;;;;;16.80;8.55;;;9.60;99.90;;;;;;6127879;23;20013;-82
2022/12/20 14:05:25;;;;;;;15.80;8.40;;;9.60;99.90;;;;;;6127867;23;20092;-83
2022/12/20 14:08:07;;;;;;;16.65;8.50;;;9.70;99.90;;;;;;6128231;23;20093;-83
2022/12/20 14:10:34;;;;;;;16.85;8.20;;;9.60;99.90;;;;;;6125672;23;20511;-83
2022/12/20 14:13:03;;;;;;;14.88;8.52;;;9.60;99.90;;;;;;6125995;23;20022;-84
2022/12/20 14:19:24;;;;;;;17.67;8.68;;;9.70;99.90;;;;;;6063082;23;19917;-84
2022/12/20 14:21:51;;;;;;;16.55;9.27;;;9.60;99.90;;;;;;6095925;23;20030;-85
2022/12/20 14:24:23;;;;;;;16.48;9.45;;;9.70;99.90;;;;;;6094587;23;20025;-85
2022/12/20 14:27:12;;;;;;;22.13;10.38;;;9.80;99.90;;;;;;6094572;23;20331;-84
2022/12/20 14:29:59;;;;;;;21.50;10.63;;;9.70;99.90;;;;;;6096377;23;20078;-85
2022/12/20 14:32:48;;;;;;;20.52;10.73;;;9.80;99.90;;;;;;6095078;23;20030;-84
2022/12/20 14:35:27;;;;;;;24.08;11.27;;;9.70;99.90;;;;;;6097317;23;20098;-85
2022/12/20 14:38:05;;;;;;;18.23;10.25;;;9.70;99.90;;;;;;6096286;23;20018;-84
2022/12/20 14:40:46;;;;;;;18.40;9.98;;;9.70;99.90;;;;;;6096197;23;20020;-84
2022/12/20 14:43:34;;;;;;;18.65;10.48;;;9.70;99.90;;;;;;6095474;23;20030;-85
2022/12/20 14:46:24;;;;;;;19.13;10.68;;;9.70;99.90;;;;;;6095791;23;20018;-84
2022/12/20 14:49:10;;;;;;;17.42;10.65;;;9.80;99.90;;;;;;6097234;23;20074;-84
2022/12/20 14:51:58;;;;;;;16.38;10.00;;;9.00;99.90;;;;;;6096315;23;20019;-84
2022/12/20 14:54:28;;;;;;;17.90;10.57;;;9.80;99.90;;;;;;6097039;23;20085;-85
2022/12/20 14:57:00;;;;;;;18.20;10.27;;;9.70;99.90;;;;;;6094675;23;20021;-84
2022/12/20 14:59:28;;;;;;;16.35;9.82;;;9.80;99.90;;;;;;6100829;23;20049;-84
2022/12/20 15:04:55;;;;;;;17.83;10.05;;;9.70;99.90;;;;;;6097637;23;20026;-85
2022/12/20 15:07:48;;;;;;;21.80;11.30;;;9.80;99.90;;;;;;6097367;23;20014;-85
2022/12/20 15:10:26;;;;;;;17.00;9.77;;;9.70;99.90;;;;;;6045904;23;20018;-84
2022/12/20 15:13:13;;;;;;;18.63;10.02;;;9.80;99.90;;;;;;6096104;23;20347;-85
2022/12/20 15:16:11;;;;;;;16.67;10.20;;;9.70;99.90;;;;;;6096746;23;20018;-86